createdAt,value
2019-03-02T00:01:45.872Z,100836.27
2019-03-02T00:04:16.024Z,100831.92
2019-03-02T00:06:45.608Z,100832.63
2019-03-02T00:09:15.137Z,100832.56
2019-03-02T00:11:44.654Z,100835.97
2019-03-02T00:14:15.766Z,100840.20
2019-03-02T00:16:45.458Z,100836.67
2019-03-02T00:19:14.979Z,100832.32
2019-03-02T00:21:44.691Z,100836.17
2019-03-02T00:24:14.205Z,100838.23
2019-03-02T00:26:45.943Z,100842.05
2019-03-02T00:29:14.995Z,100853.27
2019-03-02T00:31:44.514Z,100846.33
2019-03-02T00:34:14.108Z,100842.45
2019-03-02T00:36:43.771Z,100841.09
2019-03-02T00:39:15.656Z,100840.91
2019-03-02T00:41:44.658Z,100844.26
2019-03-02T00:44:14.190Z,100840.70
2019-03-02T00:46:43.723Z,100837.17
2019-03-02T00:49:13.245Z,100835.88
2019-03-02T00:51:46.233Z,100833.30
2019-03-02T00:54:14.439Z,100831.53
2019-03-02T00:56:43.955Z,100837.17
2019-03-02T00:59:13.522Z,100833.70
2019-03-02T01:01:43.052Z,100832.88
2019-03-02T01:04:12.570Z,100839.34
2019-03-02T01:06:45.097Z,100836.88
2019-03-02T01:09:13.582Z,100835.12
2019-03-02T01:11:43.183Z,100832.53
2019-03-02T01:14:12.724Z,100824.84
2019-03-02T01:16:42.301Z,100830.45
2019-03-02T01:19:14.546Z,100830.52
2019-03-02T01:21:43.184Z,100828.39
2019-03-02T01:24:12.759Z,100817.64
2019-03-02T01:26:42.283Z,100818.94
2019-03-02T01:29:11.818Z,100822.41
2019-03-02T01:31:41.783Z,100814.65
2019-03-02T01:34:11.501Z,100826.16
2019-03-02T01:36:41.071Z,100824.40
2019-03-02T01:39:10.765Z,100820.48
2019-03-02T01:41:40.358Z,100818.31
2019-03-02T01:44:12.688Z,100817.50
2019-03-02T01:46:41.635Z,100815.67
2019-03-02T01:49:11.147Z,100818.25
2019-03-02T01:51:41.112Z,100816.61
2019-03-02T01:54:10.636Z,100819.23
2019-03-02T01:56:41.432Z,100810.17
2019-03-02T01:59:11.502Z,100805.39
2019-03-02T02:01:41.043Z,100804.09
2019-03-02T02:04:10.735Z,100803.30
2019-03-02T02:06:42.744Z,100802.55
2019-03-02T02:09:11.650Z,100809.54
2019-03-02T02:11:41.354Z,100798.73
2019-03-02T02:14:10.970Z,100797.84
2019-03-02T02:16:41.833Z,100790.03
2019-03-02T02:19:11.488Z,100790.91
2019-03-02T02:21:41.054Z,100786.16
2019-03-02T02:24:10.644Z,100786.63
2019-03-02T02:26:40.164Z,100785.80
2019-03-02T02:29:10.152Z,100773.76
2019-03-02T02:31:44.325Z,100771.64
2019-03-02T02:34:10.918Z,100769.94
2019-03-02T02:36:40.461Z,100767.36
2019-03-02T02:39:14.428Z,100766.94
2019-03-02T02:41:43.941Z,100765.23
2019-03-02T02:44:13.482Z,100766.13
2019-03-02T02:46:43.248Z,100766.65
2019-03-02T02:49:12.789Z,100766.18
2019-03-02T02:51:44.552Z,100763.13
2019-03-02T02:54:13.694Z,100766.59
2019-03-02T02:56:43.222Z,100763.53
2019-03-02T02:59:12.773Z,100753.95
2019-03-02T03:01:42.296Z,100758.78
2019-03-02T03:04:11.804Z,100758.78
2019-03-02T03:06:41.336Z,100755.72
2019-03-02T03:09:12.582Z,100755.31
2019-03-02T03:11:44.513Z,100752.25
2019-03-02T03:14:15.096Z,100744.44
2019-03-02T03:16:44.630Z,100750.90
2019-03-02T03:19:14.175Z,100756.55
2019-03-02T03:21:43.797Z,100750.48
2019-03-02T03:24:13.309Z,100755.66
2019-03-02T03:26:42.829Z,100750.90
2019-03-02T03:29:12.560Z,100751.02
2019-03-02T03:31:42.255Z,100757.95
2019-03-02T03:34:11.774Z,100752.84
2019-03-02T03:36:41.449Z,100745.09
2019-03-02T03:39:12.962Z,100745.02
2019-03-02T03:41:43.524Z,100749.37
2019-03-02T03:44:17.774Z,100747.14
2019-03-02T03:46:45.198Z,100746.26
2019-03-02T03:49:14.706Z,100750.08
2019-03-02T03:51:44.422Z,100755.19
2019-03-02T03:54:13.940Z,100753.36
2019-03-02T03:56:44.470Z,100755.48
2019-03-02T03:59:18.854Z,100759.27
2019-03-02T04:01:45.399Z,100751.81
2019-03-02T04:04:14.987Z,100754.33
2019-03-02T04:06:44.529Z,100746.45
2019-03-02T04:09:14.050Z,100743.41
2019-03-02T04:11:43.596Z,100747.28
2019-03-02T04:14:13.094Z,100751.63
2019-03-02T04:16:42.620Z,100749.86
2019-03-02T04:19:22.582Z,100755.85
2019-03-02T04:21:52.124Z,100748.89
2019-03-02T04:24:21.649Z,100752.30
2019-03-02T04:26:51.183Z,100752.71
2019-03-02T04:29:21.920Z,100753.94
2019-03-02T04:31:51.584Z,100751.83
2019-03-02T04:34:22.932Z,100748.71
2019-03-02T04:36:52.597Z,100747.36
2019-03-02T04:39:22.115Z,100749.94
2019-03-02T04:41:51.655Z,100755.64
2019-03-02T04:44:21.163Z,100745.30
2019-03-02T04:46:51.403Z,100745.78
2019-03-02T04:49:21.612Z,100744.48
2019-03-02T04:51:51.213Z,100749.47
2019-03-02T04:54:20.728Z,100750.23
2019-03-02T04:56:50.346Z,100748.00
2019-03-02T04:59:22.006Z,100749.64
2019-03-02T05:01:51.505Z,100742.27
2019-03-02T05:04:21.052Z,100745.20
2019-03-02T05:06:54.388Z,100742.14
2019-03-02T05:09:21.817Z,100738.97
2019-03-02T05:11:51.537Z,100743.66
2019-03-02T05:14:21.076Z,100736.20
2019-03-02T05:16:50.597Z,100744.83
2019-03-02T05:19:20.131Z,100739.31
2019-03-02T05:21:49.841Z,100739.66
2019-03-02T05:24:19.357Z,100744.02
2019-03-02T05:26:48.930Z,100744.48
2019-03-02T05:29:18.562Z,100741.48
2019-03-02T05:31:48.140Z,100738.09
2019-03-02T05:34:17.779Z,100735.97
2019-03-02T05:36:47.311Z,100743.31
2019-03-02T05:39:17.309Z,100738.56
2019-03-02T05:41:47.677Z,100749.95
2019-03-02T05:44:17.193Z,100747.44
2019-03-02T05:46:46.736Z,100747.05
2019-03-02T05:49:18.552Z,100745.77
2019-03-02T05:51:48.658Z,100749.23
2019-03-02T05:54:18.298Z,100743.71
2019-03-02T05:56:47.844Z,100748.06
2019-03-02T05:59:17.447Z,100750.30
2019-03-02T06:01:46.975Z,100758.64
2019-03-02T06:04:18.814Z,100752.30
2019-03-02T06:06:50.845Z,100757.56
2019-03-02T06:09:19.172Z,100757.56
2019-03-02T06:11:48.725Z,100758.91
2019-03-02T06:14:18.251Z,100752.45
2019-03-02T06:16:47.764Z,100751.16
2019-03-02T06:19:23.255Z,100749.11
2019-03-02T06:21:48.730Z,100752.22
2019-03-02T06:24:18.262Z,100751.87
2019-03-02T06:26:47.814Z,100756.63
2019-03-02T06:29:17.335Z,100759.27
2019-03-02T06:31:46.858Z,100755.86
2019-03-02T06:34:16.747Z,100759.33
2019-03-02T06:36:47.675Z,100758.45
2019-03-02T06:39:17.212Z,100761.12
2019-03-02T06:41:46.769Z,100767.30
2019-03-02T06:44:16.295Z,100766.13
2019-03-02T06:46:45.824Z,100771.00
2019-03-02T06:49:16.759Z,100766.30
2019-03-02T06:51:47.266Z,100770.27
2019-03-02T06:54:17.600Z,100771.20
2019-03-02T06:56:47.166Z,100763.15
2019-03-02T06:59:16.728Z,100767.97
2019-03-02T07:01:46.245Z,100772.44
2019-03-02T07:04:18.065Z,100777.28
2019-03-02T07:06:47.643Z,100773.81
2019-03-02T07:09:17.132Z,100774.28
2019-03-02T07:11:46.683Z,100778.22
2019-03-02T07:14:16.276Z,100773.88
2019-03-02T07:16:45.801Z,100777.28
2019-03-02T07:19:29.318Z,100775.52
2019-03-02T07:21:58.842Z,100778.98
2019-03-02T07:24:29.462Z,100782.63
2019-03-02T07:26:59.850Z,100778.92
2019-03-02T07:29:29.372Z,100773.05
2019-03-02T07:31:58.907Z,100770.13
2019-03-02T07:34:28.662Z,100779.00
2019-03-02T07:36:58.192Z,100774.81
2019-03-02T07:39:28.773Z,100767.96
2019-03-02T07:41:59.089Z,100775.83
2019-03-02T07:44:28.594Z,100769.48
2019-03-02T07:46:58.120Z,100765.71
2019-03-02T07:49:27.671Z,100776.53
2019-03-02T07:51:57.231Z,100778.41
2019-03-02T07:54:26.765Z,100772.89
2019-03-02T07:56:56.325Z,100779.00
2019-03-02T07:59:26.588Z,100781.12
2019-03-02T08:01:57.146Z,100779.94
2019-03-02T08:04:26.686Z,100776.11
2019-03-02T08:06:57.949Z,100773.11
2019-03-02T08:09:27.550Z,100775.76
2019-03-02T08:11:57.604Z,100767.22
2019-03-02T08:14:27.128Z,100769.06
2019-03-02T08:16:56.651Z,100763.58
2019-03-02T08:19:26.285Z,100758.09
2019-03-02T08:21:55.873Z,100763.33
2019-03-02T08:24:25.381Z,100760.79
2019-03-02T08:26:55.337Z,100763.50
2019-03-02T08:29:24.839Z,100759.42
2019-03-02T08:31:54.358Z,100758.75
2019-03-02T08:34:24.036Z,100761.52
2019-03-02T08:36:54.255Z,100759.59
2019-03-02T08:39:25.016Z,100761.76
2019-03-02T08:41:54.511Z,100760.10
2019-03-02T08:44:24.119Z,100758.00
2019-03-02T08:46:53.650Z,100759.76
2019-03-02T08:49:23.207Z,100756.75
2019-03-02T08:51:52.733Z,100759.76
2019-03-02T08:54:22.393Z,100761.57
2019-03-02T08:56:52.314Z,100766.28
2019-03-02T08:59:21.838Z,100760.33
2019-03-02T09:01:54.846Z,100759.13
2019-03-02T09:04:22.928Z,100763.95
2019-03-02T09:06:52.452Z,100760.53
2019-03-02T09:09:21.965Z,100754.17
2019-03-02T09:11:51.863Z,100763.03
2019-03-02T09:14:21.368Z,100759.83
2019-03-02T09:16:50.872Z,100762.66
2019-03-02T09:19:23.996Z,100764.48
2019-03-02T09:21:51.944Z,100761.11
2019-03-02T09:24:21.456Z,100758.25
2019-03-02T09:26:51.049Z,100756.73
2019-03-02T09:29:20.575Z,100762.81
2019-03-02T09:31:50.098Z,100761.20
2019-03-02T09:34:19.628Z,100760.51
2019-03-02T09:36:49.239Z,100761.91
2019-03-02T09:39:18.750Z,100766.69
2019-03-02T09:41:48.288Z,100768.91
2019-03-02T09:44:17.801Z,100767.71
2019-03-02T09:46:47.323Z,100759.14
2019-03-02T09:49:16.874Z,100763.77
2019-03-02T09:51:48.191Z,100760.30
2019-03-02T09:54:17.682Z,100760.86
2019-03-02T09:56:47.204Z,100765.77
2019-03-02T09:59:16.785Z,100760.73
2019-03-02T10:01:48.066Z,100766.94
2019-03-02T10:04:18.115Z,100766.56
2019-03-02T10:06:47.854Z,100767.03
2019-03-02T10:09:17.616Z,100770.04
2019-03-02T10:11:47.552Z,100762.34
2019-03-02T10:14:24.841Z,100772.87
2019-03-02T10:16:55.390Z,100766.48
2019-03-02T10:19:28.351Z,100766.89
2019-03-02T10:21:56.138Z,100766.34
2019-03-02T10:24:25.849Z,100769.41
2019-03-02T10:26:55.432Z,100771.67
2019-03-02T10:29:25.040Z,100769.13
2019-03-02T10:31:54.662Z,100767.08
2019-03-02T10:34:24.195Z,100764.62
2019-03-02T10:36:53.735Z,100770.45
2019-03-02T10:39:23.266Z,100767.50
2019-03-02T10:41:53.004Z,100761.55
2019-03-02T10:44:24.027Z,100766.00
2019-03-02T10:46:53.551Z,100778.66
2019-03-02T10:49:23.064Z,100774.34
2019-03-02T10:51:52.589Z,100780.78
2019-03-02T10:54:22.257Z,100779.86
2019-03-02T10:56:51.835Z,100770.77
2019-03-02T10:59:21.343Z,100765.63
2019-03-02T11:01:51.096Z,100772.91
2019-03-02T11:04:33.786Z,100775.50
2019-03-02T11:07:05.119Z,100772.45
2019-03-02T11:09:54.075Z,100768.97
2019-03-02T11:12:25.339Z,100772.91
2019-03-02T11:14:56.569Z,100770.91
2019-03-02T11:17:27.715Z,100769.83
2019-03-02T11:19:58.881Z,100773.22
2019-03-02T11:22:38.355Z,100765.42
2019-03-02T11:25:02.930Z,100763.25
2019-03-02T11:27:34.088Z,100763.25
2019-03-02T11:30:07.864Z,100769.87
2019-03-02T11:32:37.131Z,100763.80
2019-03-02T11:35:11.427Z,100770.62
2019-03-02T11:38:01.465Z,100766.27
2019-03-02T11:40:34.584Z,100770.25
2019-03-02T11:43:21.975Z,100762.63
2019-03-02T11:45:58.804Z,100758.94
2019-03-02T11:48:38.537Z,100753.66
2019-03-02T11:51:15.858Z,100741.71
2019-03-02T11:53:48.734Z,100742.86
2019-03-02T11:56:39.109Z,100743.14
2019-03-02T11:59:14.714Z,100734.30
2019-03-02T12:01:46.062Z,100735.33
2019-03-02T12:04:27.155Z,100731.85
2019-03-02T12:06:58.552Z,100733.33
2019-03-02T12:09:29.772Z,100732.48
2019-03-02T12:12:13.209Z,100723.31
2019-03-02T12:14:46.278Z,100724.23
2019-03-02T12:17:33.608Z,100729.92
2019-03-02T12:20:10.397Z,100721.31
2019-03-02T12:22:58.289Z,100726.17
2019-03-02T12:25:41.272Z,100717.77
2019-03-02T12:28:33.057Z,100722.23
2019-03-02T12:31:12.092Z,100722.86
2019-03-02T12:33:45.683Z,100716.55
2019-03-02T12:36:17.277Z,100711.11
2019-03-02T12:38:54.390Z,100715.72
2019-03-02T12:41:28.438Z,100709.31
2019-03-02T12:44:17.504Z,100710.12
2019-03-02T12:46:59.441Z,100703.69
2019-03-02T12:49:38.817Z,100702.75
2019-03-02T12:52:22.191Z,100702.30
2019-03-02T12:55:09.710Z,100697.34
2019-03-02T12:57:45.385Z,100699.34
2019-03-02T13:00:25.750Z,100696.63
2019-03-02T13:02:59.320Z,100696.41
2019-03-02T13:05:30.480Z,100694.50
2019-03-02T13:08:01.642Z,100690.87
2019-03-02T13:10:41.840Z,100683.39
2019-03-02T13:13:13.012Z,100693.25
2019-03-02T13:15:45.452Z,100690.11
2019-03-02T13:18:17.049Z,100691.45
2019-03-02T13:20:52.155Z,100683.88
2019-03-02T13:23:23.529Z,100676.66
2019-03-02T13:26:14.668Z,100674.70
2019-03-02T13:28:46.385Z,100676.64
2019-03-02T13:31:33.715Z,100678.26
2019-03-02T13:34:02.991Z,100673.16
2019-03-02T13:36:40.039Z,100671.47
2019-03-02T13:39:14.427Z,100670.34
2019-03-02T13:41:47.897Z,100668.75
2019-03-02T13:44:38.935Z,100663.34
2019-03-02T13:47:10.663Z,100666.20
2019-03-02T13:50:00.431Z,100661.53
2019-03-02T13:52:31.562Z,100657.80
2019-03-02T13:55:14.914Z,100651.61
2019-03-02T13:57:51.841Z,100649.74
2019-03-02T14:00:27.129Z,100649.63
2019-03-02T14:03:01.321Z,100648.98
2019-03-02T14:05:42.017Z,100659.80
2019-03-02T14:08:20.812Z,100650.71
2019-03-02T14:11:08.485Z,100650.40
2019-03-02T14:13:39.633Z,100643.52
2019-03-02T14:16:10.791Z,100643.03
2019-03-02T14:18:53.695Z,100643.09
2019-03-02T14:21:24.844Z,100640.95
2019-03-02T14:24:12.761Z,100641.84
2019-03-02T14:26:42.040Z,100646.16
2019-03-02T14:29:25.305Z,100635.23
2019-03-02T14:32:10.182Z,100639.12
2019-03-02T14:34:57.583Z,100641.80
2019-03-02T14:37:28.723Z,100642.60
2019-03-02T14:40:07.008Z,100637.83
2019-03-02T14:42:39.849Z,100633.89
2019-03-02T14:45:20.428Z,100628.62
2019-03-02T14:48:09.400Z,100625.48
2019-03-02T14:50:44.007Z,100625.03
2019-03-02T14:53:19.572Z,100621.62
2019-03-02T14:55:50.973Z,100624.22
2019-03-02T14:58:28.278Z,100621.59
2019-03-02T15:01:17.551Z,100625.59
2019-03-02T15:03:48.714Z,100628.20
2019-03-02T15:06:36.175Z,100625.98
2019-03-02T15:09:12.318Z,100624.27
2019-03-02T15:11:53.503Z,100632.44
2019-03-02T15:14:42.608Z,100634.47
2019-03-02T15:17:14.251Z,100633.48
2019-03-02T15:19:58.052Z,100621.97
2019-03-02T15:22:27.507Z,100623.19
2019-03-02T15:24:59.745Z,100621.81
2019-03-02T15:27:30.900Z,100618.72
2019-03-02T15:30:17.924Z,100618.15
2019-03-02T15:33:03.710Z,100616.34
2019-03-02T15:35:35.270Z,100618.28
2019-03-02T15:38:12.584Z,100615.14
2019-03-02T15:40:55.794Z,100614.56
2019-03-02T15:43:59.384Z,100612.77
2019-03-02T15:46:32.356Z,100609.16
2019-03-02T15:49:14.066Z,100610.41
2019-03-02T15:51:54.350Z,100614.14
2019-03-02T15:54:23.623Z,100609.25
2019-03-02T15:56:56.274Z,100604.42
2019-03-02T15:59:43.683Z,100604.38
2019-03-02T16:02:31.109Z,100595.22
2019-03-02T16:05:07.853Z,100600.33
2019-03-02T16:07:46.856Z,100595.55
2019-03-02T16:10:18.172Z,100596.44
2019-03-02T16:13:01.287Z,100598.56
2019-03-02T16:15:30.669Z,100596.30
2019-03-02T16:18:17.513Z,100599.59
2019-03-02T16:20:49.015Z,100596.37
2019-03-02T16:23:35.180Z,100598.36
2019-03-02T16:26:22.213Z,100597.35
2019-03-02T16:28:53.362Z,100602.44
2019-03-02T16:31:30.066Z,100594.95
2019-03-02T16:34:16.314Z,100607.69
2019-03-02T16:36:47.677Z,100601.02
2019-03-02T16:39:30.886Z,100598.23
2019-03-02T16:42:03.013Z,100586.80
2019-03-02T16:44:35.981Z,100584.23
2019-03-02T16:47:17.084Z,100593.02
2019-03-02T16:49:57.450Z,100587.19
2019-03-02T16:52:34.513Z,100591.44
2019-03-02T16:55:21.758Z,100579.08
2019-03-02T16:57:56.025Z,100581.30
2019-03-02T17:00:42.348Z,100586.44
2019-03-02T17:03:10.917Z,100585.42
2019-03-02T17:05:56.867Z,100590.09
2019-03-02T17:08:36.863Z,100586.11
2019-03-02T17:11:24.444Z,100583.88
2019-03-02T17:13:56.099Z,100591.55
2019-03-02T17:16:43.574Z,100581.41
2019-03-02T17:19:31.785Z,100571.37
2019-03-02T17:22:08.963Z,100575.19
2019-03-02T17:24:41.533Z,100574.31
2019-03-02T17:27:12.718Z,100576.48
2019-03-02T17:29:44.991Z,100578.29
2019-03-02T17:32:35.089Z,100569.17
2019-03-02T17:35:08.250Z,100571.77
2019-03-02T17:37:57.624Z,100573.48
2019-03-02T17:40:31.170Z,100579.53
2019-03-02T17:43:03.633Z,100578.66
2019-03-02T17:45:45.178Z,100580.43
2019-03-02T17:48:21.819Z,100584.36
2019-03-02T17:51:04.677Z,100585.76
2019-03-02T17:53:35.844Z,100583.27
2019-03-02T17:56:23.496Z,100581.97
2019-03-02T17:59:04.256Z,100579.80
2019-03-02T18:01:44.991Z,100585.02
2019-03-02T18:04:35.516Z,100583.78
2019-03-02T18:07:04.869Z,100581.70
2019-03-02T18:09:43.018Z,100586.52
2019-03-02T18:12:17.978Z,100582.18
2019-03-02T18:14:49.817Z,100588.28
2019-03-02T18:17:36.171Z,100587.04
2019-03-02T18:20:10.334Z,100589.22
2019-03-02T18:22:43.071Z,100587.50
2019-03-02T18:25:13.409Z,100586.63
2019-03-02T18:27:43.122Z,100585.70
2019-03-02T18:30:17.605Z,100581.39
2019-03-02T18:32:49.096Z,100580.56
2019-03-02T18:35:18.606Z,100574.05
2019-03-02T18:37:48.161Z,100575.64
2019-03-02T18:40:17.919Z,100564.47
2019-03-02T18:42:47.440Z,100569.66
2019-03-02T18:45:17.123Z,100567.47
2019-03-02T18:47:47.051Z,100567.42
2019-03-02T18:50:25.144Z,100568.39
2019-03-02T18:52:56.997Z,100567.23
2019-03-02T18:55:26.850Z,100568.67
2019-03-02T18:57:58.376Z,100560.62
2019-03-02T19:00:30.056Z,100568.58
2019-03-02T19:02:59.568Z,100567.16
2019-03-02T19:05:30.399Z,100565.64
2019-03-02T19:08:01.454Z,100566.28
2019-03-02T19:10:31.105Z,100557.43
2019-03-02T19:13:00.685Z,100558.09
2019-03-02T19:15:30.463Z,100559.66
2019-03-02T19:17:59.978Z,100559.19
2019-03-02T19:20:29.733Z,100549.56
2019-03-02T19:22:59.277Z,100552.50
2019-03-02T19:25:28.857Z,100549.09
2019-03-02T19:27:58.378Z,100546.05
2019-03-02T19:30:28.111Z,100538.70
2019-03-02T19:32:57.867Z,100532.59
2019-03-02T19:35:27.387Z,100530.89
2019-03-02T19:37:56.936Z,100527.84
2019-03-02T19:40:31.538Z,100525.23
2019-03-02T19:43:01.053Z,100516.14
2019-03-02T19:45:30.583Z,100526.42
2019-03-02T19:48:00.121Z,100514.27
2019-03-02T19:50:29.634Z,100521.49
2019-03-02T19:52:59.178Z,100519.27
2019-03-02T19:55:28.699Z,100526.08
2019-03-02T19:57:58.196Z,100515.25
2019-03-02T20:00:31.460Z,100513.33
2019-03-02T20:03:00.988Z,100514.09
2019-03-02T20:05:30.666Z,100514.39
2019-03-02T20:08:00.198Z,100510.44
2019-03-02T20:10:29.893Z,100516.36
2019-03-02T20:13:01.211Z,100514.95
2019-03-02T20:15:31.182Z,100517.02
2019-03-02T20:18:00.699Z,100514.31
2019-03-02T20:20:30.212Z,100507.80
2019-03-02T20:22:59.749Z,100505.22
2019-03-02T20:25:29.270Z,100504.39
2019-03-02T20:27:58.793Z,100508.73
2019-03-02T20:30:28.325Z,100498.47
2019-03-02T20:32:57.845Z,100499.29
2019-03-02T20:35:32.596Z,100501.93
2019-03-02T20:38:02.087Z,100501.46
2019-03-02T20:40:32.449Z,100503.58
2019-03-02T20:43:02.061Z,100494.19
2019-03-02T20:45:31.601Z,100492.54
2019-03-02T20:48:01.119Z,100491.72
2019-03-02T20:50:30.644Z,100483.45
2019-03-02T20:53:00.629Z,100482.56
2019-03-02T20:55:30.135Z,100490.20
2019-03-02T20:57:59.647Z,100486.67
2019-03-02T21:00:32.300Z,100489.17
2019-03-02T21:03:01.808Z,100486.36
2019-03-02T21:05:31.487Z,100482.73
2019-03-02T21:08:01.229Z,100471.79
2019-03-02T21:10:32.954Z,100473.38
2019-03-02T21:13:02.545Z,100468.74
2019-03-02T21:15:42.018Z,100462.88
2019-03-02T21:18:11.536Z,100463.59
2019-03-02T21:20:41.307Z,100464.66
2019-03-02T21:23:11.611Z,100466.91
2019-03-02T21:25:41.121Z,100461.73
2019-03-02T21:28:10.636Z,100462.79
2019-03-02T21:30:40.174Z,100457.08
2019-03-02T21:33:11.938Z,100458.73
2019-03-02T21:35:40.994Z,100459.50
2019-03-02T21:38:10.558Z,100462.41
2019-03-02T21:40:40.071Z,100451.02
2019-03-02T21:43:09.610Z,100444.79
2019-03-02T21:45:39.267Z,100446.34
2019-03-02T21:48:08.793Z,100444.80
2019-03-02T21:50:58.161Z,100439.39
2019-03-02T21:53:29.446Z,100428.68
2019-03-02T21:55:59.027Z,100427.49
2019-03-02T21:58:28.714Z,100422.89
2019-03-02T22:00:58.238Z,100421.30
2019-03-02T22:03:29.461Z,100418.77
2019-03-02T22:05:59.073Z,100401.18
2019-03-02T22:08:28.601Z,100396.52
2019-03-02T22:11:09.146Z,100393.16
2019-03-02T22:13:38.667Z,100394.05
2019-03-02T22:16:08.177Z,100385.97
2019-03-02T22:18:37.726Z,100376.55
2019-03-02T22:21:07.236Z,100369.30
2019-03-02T22:23:36.753Z,100374.11
2019-03-02T22:26:06.543Z,100372.52
2019-03-02T22:28:36.055Z,100367.90
2019-03-02T22:31:05.576Z,100368.82
2019-03-02T22:33:35.533Z,100361.11
2019-03-02T22:36:05.032Z,100356.81
2019-03-02T22:38:34.563Z,100351.69
2019-03-02T22:41:04.647Z,100347.80
2019-03-02T22:43:34.167Z,100340.46
2019-03-02T22:46:03.674Z,100342.67
2019-03-02T22:48:33.208Z,100335.37
2019-03-02T22:51:02.736Z,100346.09
2019-03-02T22:53:32.263Z,100354.22
2019-03-02T22:56:01.927Z,100358.02
2019-03-02T22:58:33.273Z,100358.28
2019-03-02T23:01:31.307Z,100355.86
2019-03-02T23:04:00.836Z,100356.34
2019-03-02T23:06:30.362Z,100349.27
2019-03-02T23:08:59.934Z,100350.52
2019-03-02T23:11:29.456Z,100348.74
2019-03-02T23:13:58.968Z,100351.00
2019-03-02T23:16:28.951Z,100351.31
2019-03-02T23:18:58.470Z,100351.36
2019-03-02T23:21:27.984Z,100351.98
2019-03-02T23:23:57.671Z,100343.56
2019-03-02T23:26:27.514Z,100335.56
2019-03-02T23:28:57.049Z,100326.72
2019-03-02T23:31:26.776Z,100322.90
2019-03-02T23:33:56.315Z,100321.20
2019-03-02T23:36:25.840Z,100311.38
2019-03-02T23:38:55.605Z,100306.83
2019-03-02T23:41:25.126Z,100296.59
2019-03-02T23:43:54.650Z,100299.70
2019-03-02T23:46:24.183Z,100291.11
2019-03-02T23:48:53.693Z,100286.04
2019-03-02T23:51:23.212Z,100281.89
2019-03-02T23:53:52.903Z,100279.51
2019-03-02T23:56:22.417Z,100283.16
2019-03-02T23:58:51.949Z,100295.41
